Clarklake, Michigan
Current Conditions -  °F | °C
As of 6:56 AM on Friday 19 Dec 2014 (Local Time) from KJXN Reporting Station
Overcast Overcast  
Wind Chill: 22°   Ceiling: 500
Heat Index: 28°   Visibility: 7mi
Dew Point: 25°   Wind: 6mph
Humidity: 88%   Direction: 30°NNE
Pressure: 30.22"   Gusts: NA
Location:  42.12°N, 84.34°W
Report Text: KJXN 191156Z 03005KT 7SM BKN005 BKN011 OVC016 M02/M04 A3022 RMK AO2 CIG 004V009 SLP246 T10221039 11022 21028 53009
Loading
Personal Weather Stations






























Interactive Weather Map New forecast layout! Learn more

10-Day Weather Forecast

Advertisements
Track Severe Weather on mobile